sensor_id;sensor_type;location;lat;lon;timestamp;P1;durP1;ratioP1;P2;durP2;ratioP2
64395;SDS011;50717;53.360;6.290;2022-08-02T00:02:22;12.55;;;4.78;;
64395;SDS011;50717;53.360;6.290;2022-08-02T00:04:48;10.43;;;4.72;;
64395;SDS011;50717;53.360;6.290;2022-08-02T00:07:14;16.35;;;5.10;;
64395;SDS011;50717;53.360;6.290;2022-08-02T00:09:40;12.88;;;5.43;;
64395;SDS011;50717;53.360;6.290;2022-08-02T00:12:06;12.63;;;5.80;;
64395;SDS011;50717;53.360;6.290;2022-08-02T00:14:32;11.55;;;4.70;;
64395;SDS011;50717;53.360;6.290;2022-08-02T00:16:58;13.45;;;5.63;;
64395;SDS011;50717;53.360;6.290;2022-08-02T00:19:24;12.88;;;5.70;;
64395;SDS011;50717;53.360;6.290;2022-08-02T00:21:49;15.70;;;5.20;;
64395;SDS011;50717;53.360;6.290;2022-08-02T00:24:15;7.88;;;4.50;;
64395;SDS011;50717;53.360;6.290;2022-08-02T00:26:40;13.15;;;5.50;;
64395;SDS011;50717;53.360;6.290;2022-08-02T00:29:06;15.40;;;5.15;;
64395;SDS011;50717;53.360;6.290;2022-08-02T00:31:33;12.30;;;5.25;;
64395;SDS011;50717;53.360;6.290;2022-08-02T00:33:59;12.00;;;5.57;;
64395;SDS011;50717;53.360;6.290;2022-08-02T00:36:24;13.18;;;5.55;;
64395;SDS011;50717;53.360;6.290;2022-08-02T00:38:50;16.58;;;5.30;;
64395;SDS011;50717;53.360;6.290;2022-08-02T00:41:16;10.55;;;5.72;;
64395;SDS011;50717;53.360;6.290;2022-08-02T00:43:44;16.40;;;5.68;;
64395;SDS011;50717;53.360;6.290;2022-08-02T00:46:11;12.70;;;5.70;;
64395;SDS011;50717;53.360;6.290;2022-08-02T00:48:37;14.05;;;6.07;;
64395;SDS011;50717;53.360;6.290;2022-08-02T00:51:03;11.90;;;5.95;;
64395;SDS011;50717;53.360;6.290;2022-08-02T00:53:29;14.38;;;5.47;;
64395;SDS011;50717;53.360;6.290;2022-08-02T00:55:55;12.55;;;5.57;;
64395;SDS011;50717;53.360;6.290;2022-08-02T00:58:21;14.93;;;5.97;;
64395;SDS011;50717;53.360;6.290;2022-08-02T01:00:47;13.60;;;5.28;;
64395;SDS011;50717;53.360;6.290;2022-08-02T01:03:12;13.63;;;4.95;;
64395;SDS011;50717;53.360;6.290;2022-08-02T01:05:38;10.05;;;5.18;;
64395;SDS011;50717;53.360;6.290;2022-08-02T01:08:04;13.52;;;5.88;;
64395;SDS011;50717;53.360;6.290;2022-08-02T01:10:30;12.52;;;5.60;;
64395;SDS011;50717;53.360;6.290;2022-08-02T01:12:56;10.68;;;5.35;;
64395;SDS011;50717;53.360;6.290;2022-08-02T01:15:21;13.88;;;4.95;;
64395;SDS011;50717;53.360;6.290;2022-08-02T01:17:52;15.15;;;5.35;;
64395;SDS011;50717;53.360;6.290;2022-08-02T01:28:53;14.45;;;6.22;;
64395;SDS011;50717;53.360;6.290;2022-08-02T01:31:30;14.25;;;5.50;;
64395;SDS011;50717;53.360;6.290;2022-08-02T01:34:10;13.43;;;5.13;;
64395;SDS011;50717;53.360;6.290;2022-08-02T01:36:59;11.63;;;5.10;;
64395;SDS011;50717;53.360;6.290;2022-08-02T01:39:32;16.42;;;6.40;;
64395;SDS011;50717;53.360;6.290;2022-08-02T01:42:00;18.20;;;5.15;;
64395;SDS011;50717;53.360;6.290;2022-08-02T01:44:27;13.38;;;5.07;;
64395;SDS011;50717;53.360;6.290;2022-08-02T01:46:58;18.67;;;5.65;;
64395;SDS011;50717;53.360;6.290;2022-08-02T01:49:31;10.70;;;4.63;;
64395;SDS011;50717;53.360;6.290;2022-08-02T01:51:59;15.02;;;5.25;;
64395;SDS011;50717;53.360;6.290;2022-08-02T01:54:46;17.17;;;5.15;;
64395;SDS011;50717;53.360;6.290;2022-08-02T01:57:38;12.35;;;4.70;;
64395;SDS011;50717;53.360;6.290;2022-08-02T02:00:06;14.80;;;5.30;;
64395;SDS011;50717;53.360;6.290;2022-08-02T02:02:33;12.48;;;4.47;;
64395;SDS011;50717;53.360;6.290;2022-08-02T02:05:01;14.63;;;4.72;;
64395;SDS011;50717;53.360;6.290;2022-08-02T02:07:28;11.60;;;4.38;;
64395;SDS011;50717;53.360;6.290;2022-08-02T02:09:57;16.33;;;4.93;;
64395;SDS011;50717;53.360;6.290;2022-08-02T02:12:24;12.35;;;4.72;;
64395;SDS011;50717;53.360;6.290;2022-08-02T02:14:52;12.27;;;4.97;;
64395;SDS011;50717;53.360;6.290;2022-08-02T02:17:20;11.77;;;4.70;;
64395;SDS011;50717;53.360;6.290;2022-08-02T02:19:49;20.30;;;5.45;;
64395;SDS011;50717;53.360;6.290;2022-08-02T02:22:17;12.45;;;4.70;;
64395;SDS011;50717;53.360;6.290;2022-08-02T02:24:42;9.85;;;4.47;;
64395;SDS011;50717;53.360;6.290;2022-08-02T02:27:08;14.15;;;4.80;;
64395;SDS011;50717;53.360;6.290;2022-08-02T02:29:38;12.80;;;4.70;;
64395;SDS011;50717;53.360;6.290;2022-08-02T02:32:11;13.25;;;4.63;;
64395;SDS011;50717;53.360;6.290;2022-08-02T02:34:41;10.93;;;4.43;;
64395;SDS011;50717;53.360;6.290;2022-08-02T02:37:11;9.27;;;4.28;;
64395;SDS011;50717;53.360;6.290;2022-08-02T02:39:41;8.13;;;3.95;;
64395;SDS011;50717;53.360;6.290;2022-08-02T02:42:10;10.05;;;4.28;;
64395;SDS011;50717;53.360;6.290;2022-08-02T02:44:38;16.02;;;5.30;;
64395;SDS011;50717;53.360;6.290;2022-08-02T02:47:05;9.18;;;4.05;;
64395;SDS011;50717;53.360;6.290;2022-08-02T02:49:33;13.30;;;4.40;;
64395;SDS011;50717;53.360;6.290;2022-08-02T02:52:01;9.57;;;4.70;;
64395;SDS011;50717;53.360;6.290;2022-08-02T02:54:29;13.23;;;4.90;;
64395;SDS011;50717;53.360;6.290;2022-08-02T02:56:57;11.80;;;5.00;;
64395;SDS011;50717;53.360;6.290;2022-08-02T02:59:24;18.40;;;4.53;;
64395;SDS011;50717;53.360;6.290;2022-08-02T03:01:51;11.15;;;5.10;;
64395;SDS011;50717;53.360;6.290;2022-08-02T03:04:18;11.00;;;5.15;;
64395;SDS011;50717;53.360;6.290;2022-08-02T03:06:45;16.77;;;5.20;;
64395;SDS011;50717;53.360;6.290;2022-08-02T03:09:11;19.98;;;5.10;;
64395;SDS011;50717;53.360;6.290;2022-08-02T03:11:37;14.25;;;5.05;;
64395;SDS011;50717;53.360;6.290;2022-08-02T03:14:06;15.02;;;5.00;;
64395;SDS011;50717;53.360;6.290;2022-08-02T03:16:40;10.98;;;5.10;;
64395;SDS011;50717;53.360;6.290;2022-08-02T03:19:10;11.90;;;5.72;;
64395;SDS011;50717;53.360;6.290;2022-08-02T03:21:36;9.88;;;5.13;;
64395;SDS011;50717;53.360;6.290;2022-08-02T03:24:02;14.70;;;5.22;;
64395;SDS011;50717;53.360;6.290;2022-08-02T03:26:27;10.35;;;5.43;;
64395;SDS011;50717;53.360;6.290;2022-08-02T03:28:53;11.73;;;5.53;;
64395;SDS011;50717;53.360;6.290;2022-08-02T03:31:19;12.30;;;6.40;;
64395;SDS011;50717;53.360;6.290;2022-08-02T03:33:44;13.18;;;5.63;;
64395;SDS011;50717;53.360;6.290;2022-08-02T03:38:38;11.20;;;5.97;;
64395;SDS011;50717;53.360;6.290;2022-08-02T03:41:06;9.60;;;5.90;;
64395;SDS011;50717;53.360;6.290;2022-08-02T03:43:35;15.68;;;6.55;;
64395;SDS011;50717;53.360;6.290;2022-08-02T03:46:02;12.95;;;6.15;;
64395;SDS011;50717;53.360;6.290;2022-08-02T03:48:29;13.93;;;5.70;;
64395;SDS011;50717;53.360;6.290;2022-08-02T03:50:56;14.60;;;6.25;;
64395;SDS011;50717;53.360;6.290;2022-08-02T03:53:23;13.90;;;6.28;;
64395;SDS011;50717;53.360;6.290;2022-08-02T03:55:49;15.23;;;6.10;;
64395;SDS011;50717;53.360;6.290;2022-08-02T03:58:16;12.93;;;5.78;;
64395;SDS011;50717;53.360;6.290;2022-08-02T04:00:46;13.27;;;5.82;;
64395;SDS011;50717;53.360;6.290;2022-08-02T04:03:12;12.32;;;5.57;;
64395;SDS011;50717;53.360;6.290;2022-08-02T04:05:39;10.75;;;6.30;;
64395;SDS011;50717;53.360;6.290;2022-08-02T04:08:06;12.60;;;6.15;;
64395;SDS011;50717;53.360;6.290;2022-08-02T04:10:32;18.20;;;6.03;;
64395;SDS011;50717;53.360;6.290;2022-08-02T04:13:21;10.68;;;6.10;;
64395;SDS011;50717;53.360;6.290;2022-08-02T04:15:52;12.93;;;5.47;;
64395;SDS011;50717;53.360;6.290;2022-08-02T04:18:21;13.00;;;6.20;;
64395;SDS011;50717;53.360;6.290;2022-08-02T04:20:53;18.65;;;6.18;;
64395;SDS011;50717;53.360;6.290;2022-08-02T04:23:20;15.70;;;5.63;;
64395;SDS011;50717;53.360;6.290;2022-08-02T04:25:49;15.20;;;6.13;;
64395;SDS011;50717;53.360;6.290;2022-08-02T04:28:15;15.25;;;6.22;;
64395;SDS011;50717;53.360;6.290;2022-08-02T04:30:41;15.82;;;6.53;;
64395;SDS011;50717;53.360;6.290;2022-08-02T04:33:08;16.80;;;5.88;;
64395;SDS011;50717;53.360;6.290;2022-08-02T04:35:34;13.57;;;6.00;;
64395;SDS011;50717;53.360;6.290;2022-08-02T04:38:00;8.98;;;5.85;;
64395;SDS011;50717;53.360;6.290;2022-08-02T04:42:52;15.30;;;5.97;;
64395;SDS011;50717;53.360;6.290;2022-08-02T04:45:17;16.23;;;5.82;;
64395;SDS011;50717;53.360;6.290;2022-08-02T04:47:45;10.60;;;5.78;;
64395;SDS011;50717;53.360;6.290;2022-08-02T04:50:11;10.63;;;5.82;;
64395;SDS011;50717;53.360;6.290;2022-08-02T04:52:36;14.18;;;5.20;;
64395;SDS011;50717;53.360;6.290;2022-08-02T04:55:02;11.02;;;5.28;;
64395;SDS011;50717;53.360;6.290;2022-08-02T04:57:28;11.43;;;5.15;;
64395;SDS011;50717;53.360;6.290;2022-08-02T05:00:12;15.85;;;6.22;;
64395;SDS011;50717;53.360;6.290;2022-08-02T05:05:04;13.65;;;6.15;;
64395;SDS011;50717;53.360;6.290;2022-08-02T05:07:30;16.50;;;5.30;;
64395;SDS011;50717;53.360;6.290;2022-08-02T05:09:56;10.77;;;5.32;;
64395;SDS011;50717;53.360;6.290;2022-08-02T05:12:21;18.15;;;5.20;;
64395;SDS011;50717;53.360;6.290;2022-08-02T05:14:48;14.45;;;5.30;;
64395;SDS011;50717;53.360;6.290;2022-08-02T05:17:14;13.82;;;5.53;;
64395;SDS011;50717;53.360;6.290;2022-08-02T05:19:40;17.40;;;5.93;;
64395;SDS011;50717;53.360;6.290;2022-08-02T05:24:31;12.43;;;5.03;;
64395;SDS011;50717;53.360;6.290;2022-08-02T05:26:57;17.15;;;5.07;;
64395;SDS011;50717;53.360;6.290;2022-08-02T05:29:22;10.30;;;5.38;;
64395;SDS011;50717;53.360;6.290;2022-08-02T05:31:48;10.30;;;5.10;;
64395;SDS011;50717;53.360;6.290;2022-08-02T05:34:14;18.40;;;6.60;;
64395;SDS011;50717;53.360;6.290;2022-08-02T05:36:40;11.18;;;5.32;;
64395;SDS011;50717;53.360;6.290;2022-08-02T05:39:05;13.98;;;5.45;;
64395;SDS011;50717;53.360;6.290;2022-08-02T05:41:31;15.82;;;6.90;;
64395;SDS011;50717;53.360;6.290;2022-08-02T05:43:57;18.80;;;6.15;;
64395;SDS011;50717;53.360;6.290;2022-08-02T05:46:23;13.05;;;5.43;;
64395;SDS011;50717;53.360;6.290;2022-08-02T05:48:49;15.02;;;6.10;;
64395;SDS011;50717;53.360;6.290;2022-08-02T05:51:21;12.27;;;5.45;;
64395;SDS011;50717;53.360;6.290;2022-08-02T05:53:51;15.52;;;5.55;;
64395;SDS011;50717;53.360;6.290;2022-08-02T05:56:40;9.30;;;4.75;;
64395;SDS011;50717;53.360;6.290;2022-08-02T06:02:29;12.35;;;5.45;;
64395;SDS011;50717;53.360;6.290;2022-08-02T06:07:46;13.13;;;5.13;;
64395;SDS011;50717;53.360;6.290;2022-08-02T06:10:14;17.80;;;5.00;;
64395;SDS011;50717;53.360;6.290;2022-08-02T06:15:17;12.15;;;5.32;;
64395;SDS011;50717;53.360;6.290;2022-08-02T06:17:44;17.88;;;5.88;;
64395;SDS011;50717;53.360;6.290;2022-08-02T06:20:11;16.88;;;5.60;;
64395;SDS011;50717;53.360;6.290;2022-08-02T06:22:39;9.70;;;4.80;;
64395;SDS011;50717;53.360;6.290;2022-08-02T06:25:07;9.98;;;4.70;;
64395;SDS011;50717;53.360;6.290;2022-08-02T06:27:34;15.60;;;4.70;;
64395;SDS011;50717;53.360;6.290;2022-08-02T06:30:01;8.48;;;4.38;;
64395;SDS011;50717;53.360;6.290;2022-08-02T06:32:30;15.73;;;4.90;;
64395;SDS011;50717;53.360;6.290;2022-08-02T06:34:57;10.20;;;5.32;;
64395;SDS011;50717;53.360;6.290;2022-08-02T06:38:05;10.07;;;4.57;;
64395;SDS011;50717;53.360;6.290;2022-08-02T06:40:21;13.45;;;4.40;;
64395;SDS011;50717;53.360;6.290;2022-08-02T06:42:54;10.23;;;4.40;;
64395;SDS011;50717;53.360;6.290;2022-08-02T06:45:42;12.98;;;5.05;;
64395;SDS011;50717;53.360;6.290;2022-08-02T06:50:34;11.07;;;4.40;;
64395;SDS011;50717;53.360;6.290;2022-08-02T06:53:06;13.23;;;4.85;;
64395;SDS011;50717;53.360;6.290;2022-08-02T06:55:33;12.57;;;5.10;;
64395;SDS011;50717;53.360;6.290;2022-08-02T07:00:24;13.40;;;4.15;;
64395;SDS011;50717;53.360;6.290;2022-08-02T07:05:16;9.63;;;3.40;;
64395;SDS011;50717;53.360;6.290;2022-08-02T07:10:07;6.45;;;3.45;;
64395;SDS011;50717;53.360;6.290;2022-08-02T07:14:59;9.55;;;2.80;;
64395;SDS011;50717;53.360;6.290;2022-08-02T07:17:27;6.40;;;2.70;;
64395;SDS011;50717;53.360;6.290;2022-08-02T07:19:53;10.10;;;2.80;;
64395;SDS011;50717;53.360;6.290;2022-08-02T07:24:47;4.18;;;2.10;;
64395;SDS011;50717;53.360;6.290;2022-08-02T07:27:13;11.38;;;3.45;;
64395;SDS011;50717;53.360;6.290;2022-08-02T07:32:05;9.57;;;2.80;;
64395;SDS011;50717;53.360;6.290;2022-08-02T07:34:31;10.15;;;2.72;;
64395;SDS011;50717;53.360;6.290;2022-08-02T07:39:23;5.97;;;2.05;;
64395;SDS011;50717;53.360;6.290;2022-08-02T07:41:49;4.15;;;2.42;;
64395;SDS011;50717;53.360;6.290;2022-08-02T07:44:16;10.23;;;1.98;;
64395;SDS011;50717;53.360;6.290;2022-08-02T07:46:43;5.15;;;1.90;;
64395;SDS011;50717;53.360;6.290;2022-08-02T07:49:09;4.03;;;1.88;;
64395;SDS011;50717;53.360;6.290;2022-08-02T07:54:01;4.90;;;1.73;;
64395;SDS011;50717;53.360;6.290;2022-08-02T07:56:27;8.15;;;2.22;;
64395;SDS011;50717;53.360;6.290;2022-08-02T07:58:52;6.72;;;2.30;;
64395;SDS011;50717;53.360;6.290;2022-08-02T08:01:18;4.05;;;1.70;;
64395;SDS011;50717;53.360;6.290;2022-08-02T08:03:44;5.82;;;1.80;;
64395;SDS011;50717;53.360;6.290;2022-08-02T08:06:10;2.30;;;1.38;;
64395;SDS011;50717;53.360;6.290;2022-08-02T08:08:35;2.88;;;1.48;;
64395;SDS011;50717;53.360;6.290;2022-08-02T08:11:01;2.13;;;1.30;;
64395;SDS011;50717;53.360;6.290;2022-08-02T08:13:27;2.58;;;1.38;;
64395;SDS011;50717;53.360;6.290;2022-08-02T08:15:53;4.35;;;1.50;;
64395;SDS011;50717;53.360;6.290;2022-08-02T08:18:19;9.68;;;1.65;;
64395;SDS011;50717;53.360;6.290;2022-08-02T08:20:45;3.63;;;1.50;;
64395;SDS011;50717;53.360;6.290;2022-08-02T08:23:11;4.15;;;1.30;;
64395;SDS011;50717;53.360;6.290;2022-08-02T08:25:37;9.48;;;1.80;;
64395;SDS011;50717;53.360;6.290;2022-08-02T08:28:03;6.78;;;1.40;;
64395;SDS011;50717;53.360;6.290;2022-08-02T08:30:29;4.05;;;1.30;;
64395;SDS011;50717;53.360;6.290;2022-08-02T08:32:55;3.40;;;1.40;;
64395;SDS011;50717;53.360;6.290;2022-08-02T08:35:20;3.85;;;1.48;;
64395;SDS011;50717;53.360;6.290;2022-08-02T08:37:46;8.13;;;1.85;;
64395;SDS011;50717;53.360;6.290;2022-08-02T08:40:12;3.60;;;1.30;;
64395;SDS011;50717;53.360;6.290;2022-08-02T08:42:38;2.58;;;1.20;;
64395;SDS011;50717;53.360;6.290;2022-08-02T08:45:04;2.08;;;1.20;;
64395;SDS011;50717;53.360;6.290;2022-08-02T08:47:35;4.68;;;1.52;;
64395;SDS011;50717;53.360;6.290;2022-08-02T08:50:06;4.13;;;1.52;;
64395;SDS011;50717;53.360;6.290;2022-08-02T08:52:37;2.50;;;1.35;;
64395;SDS011;50717;53.360;6.290;2022-08-02T08:55:12;7.45;;;1.55;;
64395;SDS011;50717;53.360;6.290;2022-08-02T08:57:41;2.95;;;1.20;;
64395;SDS011;50717;53.360;6.290;2022-08-02T09:00:07;3.50;;;1.27;;
64395;SDS011;50717;53.360;6.290;2022-08-02T09:02:35;1.85;;;1.27;;
64395;SDS011;50717;53.360;6.290;2022-08-02T09:05:01;2.42;;;1.50;;
64395;SDS011;50717;53.360;6.290;2022-08-02T09:07:27;3.83;;;1.30;;
64395;SDS011;50717;53.360;6.290;2022-08-02T09:09:53;2.25;;;1.40;;
64395;SDS011;50717;53.360;6.290;2022-08-02T09:12:19;2.60;;;1.20;;
64395;SDS011;50717;53.360;6.290;2022-08-02T09:14:49;3.45;;;1.55;;
64395;SDS011;50717;53.360;6.290;2022-08-02T09:17:15;4.32;;;1.42;;
64395;SDS011;50717;53.360;6.290;2022-08-02T09:19:40;6.30;;;1.48;;
64395;SDS011;50717;53.360;6.290;2022-08-02T09:22:07;4.55;;;1.42;;
64395;SDS011;50717;53.360;6.290;2022-08-02T09:24:41;2.58;;;1.30;;
64395;SDS011;50717;53.360;6.290;2022-08-02T09:27:15;4.15;;;1.33;;
64395;SDS011;50717;53.360;6.290;2022-08-02T09:29:45;1.88;;;1.50;;
64395;SDS011;50717;53.360;6.290;2022-08-02T09:32:12;7.68;;;2.35;;
64395;SDS011;50717;53.360;6.290;2022-08-02T09:34:47;5.97;;;1.75;;
64395;SDS011;50717;53.360;6.290;2022-08-02T09:37:24;3.92;;;1.50;;
64395;SDS011;50717;53.360;6.290;2022-08-02T09:39:54;3.50;;;1.75;;
64395;SDS011;50717;53.360;6.290;2022-08-02T09:42:21;2.92;;;1.50;;
64395;SDS011;50717;53.360;6.290;2022-08-02T09:44:56;4.97;;;1.75;;
64395;SDS011;50717;53.360;6.290;2022-08-02T09:47:24;5.75;;;2.15;;
64395;SDS011;50717;53.360;6.290;2022-08-02T09:49:50;4.05;;;1.90;;
64395;SDS011;50717;53.360;6.290;2022-08-02T09:52:21;5.13;;;2.00;;
64395;SDS011;50717;53.360;6.290;2022-08-02T09:54:50;4.38;;;1.95;;
64395;SDS011;50717;53.360;6.290;2022-08-02T09:57:23;6.18;;;2.00;;
64395;SDS011;50717;53.360;6.290;2022-08-02T09:59:53;5.47;;;2.10;;
64395;SDS011;50717;53.360;6.290;2022-08-02T10:02:20;3.90;;;2.17;;
64395;SDS011;50717;53.360;6.290;2022-08-02T10:04:46;6.10;;;2.67;;
64395;SDS011;50717;53.360;6.290;2022-08-02T10:07:12;7.10;;;2.15;;
64395;SDS011;50717;53.360;6.290;2022-08-02T10:09:39;5.72;;;2.22;;
64395;SDS011;50717;53.360;6.290;2022-08-02T10:12:05;5.63;;;2.25;;
64395;SDS011;50717;53.360;6.290;2022-08-02T10:14:34;4.35;;;1.90;;
64395;SDS011;50717;53.360;6.290;2022-08-02T10:17:00;4.00;;;2.47;;
64395;SDS011;50717;53.360;6.290;2022-08-02T10:19:27;4.85;;;2.40;;
64395;SDS011;50717;53.360;6.290;2022-08-02T10:22:03;4.85;;;2.10;;
64395;SDS011;50717;53.360;6.290;2022-08-02T10:24:31;8.23;;;2.40;;
64395;SDS011;50717;53.360;6.290;2022-08-02T10:27:00;5.63;;;2.30;;
64395;SDS011;50717;53.360;6.290;2022-08-02T10:29:33;6.38;;;2.80;;
64395;SDS011;50717;53.360;6.290;2022-08-02T10:32:08;7.78;;;3.00;;
64395;SDS011;50717;53.360;6.290;2022-08-02T10:37:10;8.63;;;3.90;;
64395;SDS011;50717;53.360;6.290;2022-08-02T10:39:42;7.38;;;3.10;;
64395;SDS011;50717;53.360;6.290;2022-08-02T10:42:09;8.27;;;3.20;;
64395;SDS011;50717;53.360;6.290;2022-08-02T10:44:36;5.68;;;3.70;;
64395;SDS011;50717;53.360;6.290;2022-08-02T10:49:55;8.50;;;4.20;;
64395;SDS011;50717;53.360;6.290;2022-08-02T10:52:23;10.18;;;4.35;;
64395;SDS011;50717;53.360;6.290;2022-08-02T10:54:53;8.77;;;3.65;;
64395;SDS011;50717;53.360;6.290;2022-08-02T10:57:23;7.05;;;3.60;;
64395;SDS011;50717;53.360;6.290;2022-08-02T10:59:51;6.32;;;3.80;;
64395;SDS011;50717;53.360;6.290;2022-08-02T11:02:31;6.88;;;3.22;;
64395;SDS011;50717;53.360;6.290;2022-08-02T11:05:04;5.15;;;3.55;;
64395;SDS011;50717;53.360;6.290;2022-08-02T11:07:31;9.15;;;3.83;;
64395;SDS011;50717;53.360;6.290;2022-08-02T11:09:59;6.15;;;3.67;;
64395;SDS011;50717;53.360;6.290;2022-08-02T11:13:05;9.40;;;3.97;;
64395;SDS011;50717;53.360;6.290;2022-08-02T11:15:46;7.13;;;3.75;;
64395;SDS011;50717;53.360;6.290;2022-08-02T11:18:12;5.55;;;3.47;;
64395;SDS011;50717;53.360;6.290;2022-08-02T11:20:38;5.80;;;3.80;;
64395;SDS011;50717;53.360;6.290;2022-08-02T11:28:55;5.22;;;3.25;;
64395;SDS011;50717;53.360;6.290;2022-08-02T11:31:22;12.07;;;4.05;;
64395;SDS011;50717;53.360;6.290;2022-08-02T11:33:48;8.13;;;4.50;;
64395;SDS011;50717;53.360;6.290;2022-08-02T11:36:15;8.32;;;4.35;;
64395;SDS011;50717;53.360;6.290;2022-08-02T11:38:41;7.38;;;4.18;;
64395;SDS011;50717;53.360;6.290;2022-08-02T11:41:07;5.50;;;3.70;;
64395;SDS011;50717;53.360;6.290;2022-08-02T11:43:33;9.05;;;3.60;;
64395;SDS011;50717;53.360;6.290;2022-08-02T11:46:03;8.80;;;5.13;;
64395;SDS011;50717;53.360;6.290;2022-08-02T11:48:36;16.77;;;5.85;;
64395;SDS011;50717;53.360;6.290;2022-08-02T11:51:08;8.60;;;5.30;;
64395;SDS011;50717;53.360;6.290;2022-08-02T11:53:52;9.60;;;5.20;;
64395;SDS011;50717;53.360;6.290;2022-08-02T11:56:25;8.47;;;4.80;;
64395;SDS011;50717;53.360;6.290;2022-08-02T11:59:00;9.98;;;6.53;;
64395;SDS011;50717;53.360;6.290;2022-08-02T12:01:27;11.93;;;6.75;;
64395;SDS011;50717;53.360;6.290;2022-08-02T12:03:55;11.90;;;7.03;;
64395;SDS011;50717;53.360;6.290;2022-08-02T12:06:24;11.13;;;7.13;;
64395;SDS011;50717;53.360;6.290;2022-08-02T12:08:57;11.73;;;7.57;;
64395;SDS011;50717;53.360;6.290;2022-08-02T12:11:24;11.63;;;7.13;;
64395;SDS011;50717;53.360;6.290;2022-08-02T12:13:49;15.48;;;7.22;;
64395;SDS011;50717;53.360;6.290;2022-08-02T12:16:15;12.48;;;8.20;;
64395;SDS011;50717;53.360;6.290;2022-08-02T12:18:59;12.77;;;7.82;;
64395;SDS011;50717;53.360;6.290;2022-08-02T12:21:43;13.65;;;8.57;;
64395;SDS011;50717;53.360;6.290;2022-08-02T12:24:10;10.48;;;7.70;;
64395;SDS011;50717;53.360;6.290;2022-08-02T12:26:42;14.38;;;8.18;;
64395;SDS011;50717;53.360;6.290;2022-08-02T12:29:09;12.43;;;8.70;;
64395;SDS011;50717;53.360;6.290;2022-08-02T12:31:43;12.40;;;8.57;;
64395;SDS011;50717;53.360;6.290;2022-08-02T12:34:16;9.93;;;8.45;;
64395;SDS011;50717;53.360;6.290;2022-08-02T12:36:55;15.85;;;9.82;;
64395;SDS011;50717;53.360;6.290;2022-08-02T12:39:42;16.17;;;11.00;;
64395;SDS011;50717;53.360;6.290;2022-08-02T12:42:10;15.93;;;11.18;;
64395;SDS011;50717;53.360;6.290;2022-08-02T12:44:52;16.13;;;11.02;;
64395;SDS011;50717;53.360;6.290;2022-08-02T12:47:19;19.35;;;12.35;;
64395;SDS011;50717;53.360;6.290;2022-08-02T12:49:46;19.48;;;10.88;;
64395;SDS011;50717;53.360;6.290;2022-08-02T12:52:32;13.95;;;11.23;;
64395;SDS011;50717;53.360;6.290;2022-08-02T12:54:57;17.50;;;11.23;;
64395;SDS011;50717;53.360;6.290;2022-08-02T12:57:23;16.52;;;12.75;;
64395;SDS011;50717;53.360;6.290;2022-08-02T12:59:50;20.08;;;11.88;;
64395;SDS011;50717;53.360;6.290;2022-08-02T13:02:17;16.65;;;12.63;;
64395;SDS011;50717;53.360;6.290;2022-08-02T13:04:44;18.92;;;11.85;;
64395;SDS011;50717;53.360;6.290;2022-08-02T13:07:10;15.18;;;11.98;;
64395;SDS011;50717;53.360;6.290;2022-08-02T13:09:39;17.60;;;11.52;;
64395;SDS011;50717;53.360;6.290;2022-08-02T13:12:06;16.38;;;11.13;;
64395;SDS011;50717;53.360;6.290;2022-08-02T13:14:33;16.15;;;11.23;;
64395;SDS011;50717;53.360;6.290;2022-08-02T13:16:59;18.33;;;12.80;;
64395;SDS011;50717;53.360;6.290;2022-08-02T13:19:25;18.55;;;11.93;;
64395;SDS011;50717;53.360;6.290;2022-08-02T13:21:51;24.27;;;12.10;;
64395;SDS011;50717;53.360;6.290;2022-08-02T13:24:17;16.52;;;11.52;;
64395;SDS011;50717;53.360;6.290;2022-08-02T13:26:44;19.55;;;11.98;;
64395;SDS011;50717;53.360;6.290;2022-08-02T13:29:10;17.35;;;12.50;;
64395;SDS011;50717;53.360;6.290;2022-08-02T13:31:37;19.73;;;12.65;;
64395;SDS011;50717;53.360;6.290;2022-08-02T13:34:07;18.75;;;12.63;;
64395;SDS011;50717;53.360;6.290;2022-08-02T13:36:33;19.92;;;12.70;;
64395;SDS011;50717;53.360;6.290;2022-08-02T13:39:03;21.55;;;13.07;;
64395;SDS011;50717;53.360;6.290;2022-08-02T13:41:32;22.13;;;13.45;;
64395;SDS011;50717;53.360;6.290;2022-08-02T13:43:58;19.30;;;13.55;;
64395;SDS011;50717;53.360;6.290;2022-08-02T13:46:24;19.88;;;13.25;;
64395;SDS011;50717;53.360;6.290;2022-08-02T13:48:49;19.67;;;13.75;;
64395;SDS011;50717;53.360;6.290;2022-08-02T13:51:15;17.70;;;12.80;;
64395;SDS011;50717;53.360;6.290;2022-08-02T13:53:41;19.65;;;14.05;;
64395;SDS011;50717;53.360;6.290;2022-08-02T13:56:07;18.15;;;13.57;;
64395;SDS011;50717;53.360;6.290;2022-08-02T13:58:32;22.50;;;13.30;;
64395;SDS011;50717;53.360;6.290;2022-08-02T14:00:58;20.15;;;13.38;;
64395;SDS011;50717;53.360;6.290;2022-08-02T14:03:24;19.20;;;12.82;;
64395;SDS011;50717;53.360;6.290;2022-08-02T14:05:50;20.75;;;12.70;;
64395;SDS011;50717;53.360;6.290;2022-08-02T14:08:17;20.90;;;12.93;;
64395;SDS011;50717;53.360;6.290;2022-08-02T14:10:44;19.38;;;12.27;;
64395;SDS011;50717;53.360;6.290;2022-08-02T14:13:11;19.98;;;10.68;;
64395;SDS011;50717;53.360;6.290;2022-08-02T14:15:36;20.77;;;12.23;;
64395;SDS011;50717;53.360;6.290;2022-08-02T14:18:02;20.77;;;11.77;;
64395;SDS011;50717;53.360;6.290;2022-08-02T14:20:28;16.92;;;10.90;;
64395;SDS011;50717;53.360;6.290;2022-08-02T14:22:53;14.05;;;10.07;;
64395;SDS011;50717;53.360;6.290;2022-08-02T14:25:19;18.65;;;10.57;;
64395;SDS011;50717;53.360;6.290;2022-08-02T14:27:45;16.33;;;10.15;;
64395;SDS011;50717;53.360;6.290;2022-08-02T14:30:11;17.00;;;9.90;;
64395;SDS011;50717;53.360;6.290;2022-08-02T14:32:37;13.45;;;8.90;;
64395;SDS011;50717;53.360;6.290;2022-08-02T14:35:02;13.20;;;9.43;;
64395;SDS011;50717;53.360;6.290;2022-08-02T14:37:28;13.60;;;9.55;;
64395;SDS011;50717;53.360;6.290;2022-08-02T14:39:54;11.18;;;9.00;;
64395;SDS011;50717;53.360;6.290;2022-08-02T14:42:20;11.93;;;8.52;;
64395;SDS011;50717;53.360;6.290;2022-08-02T14:44:45;12.00;;;8.75;;
64395;SDS011;50717;53.360;6.290;2022-08-02T14:47:11;16.05;;;8.80;;
64395;SDS011;50717;53.360;6.290;2022-08-02T14:49:37;11.35;;;8.80;;
64395;SDS011;50717;53.360;6.290;2022-08-02T14:52:02;11.07;;;8.68;;
64395;SDS011;50717;53.360;6.290;2022-08-02T14:54:28;13.25;;;10.18;;
64395;SDS011;50717;53.360;6.290;2022-08-02T14:56:56;20.27;;;10.25;;
64395;SDS011;50717;53.360;6.290;2022-08-02T14:59:22;12.60;;;9.40;;
64395;SDS011;50717;53.360;6.290;2022-08-02T15:01:48;14.48;;;9.23;;
64395;SDS011;50717;53.360;6.290;2022-08-02T15:04:14;13.80;;;9.95;;
64395;SDS011;50717;53.360;6.290;2022-08-02T15:06:39;13.93;;;9.20;;
64395;SDS011;50717;53.360;6.290;2022-08-02T15:09:05;11.90;;;8.80;;
64395;SDS011;50717;53.360;6.290;2022-08-02T15:11:31;17.20;;;8.63;;
64395;SDS011;50717;53.360;6.290;2022-08-02T15:13:57;11.30;;;8.32;;
64395;SDS011;50717;53.360;6.290;2022-08-02T15:16:23;14.85;;;8.82;;
64395;SDS011;50717;53.360;6.290;2022-08-02T15:18:50;10.85;;;7.43;;
64395;SDS011;50717;53.360;6.290;2022-08-02T15:21:16;10.75;;;7.57;;
64395;SDS011;50717;53.360;6.290;2022-08-02T15:23:41;12.00;;;7.18;;
64395;SDS011;50717;53.360;6.290;2022-08-02T15:26:07;13.60;;;7.05;;
64395;SDS011;50717;53.360;6.290;2022-08-02T15:28:32;10.95;;;7.13;;
64395;SDS011;50717;53.360;6.290;2022-08-02T15:30:58;10.63;;;6.32;;
64395;SDS011;50717;53.360;6.290;2022-08-02T15:33:24;7.78;;;5.55;;
64395;SDS011;50717;53.360;6.290;2022-08-02T15:35:50;10.75;;;5.93;;
64395;SDS011;50717;53.360;6.290;2022-08-02T15:38:16;9.88;;;5.70;;
64395;SDS011;50717;53.360;6.290;2022-08-02T15:40:42;7.90;;;5.95;;
64395;SDS011;50717;53.360;6.290;2022-08-02T15:43:08;8.90;;;6.10;;
64395;SDS011;50717;53.360;6.290;2022-08-02T15:45:34;8.32;;;5.90;;